sensor_id;sensor_type;location;lat;lon;timestamp;pressure;altitude;pressure_sealevel;temperature;humidity
13080;BME280;6606;49.154;9.280;2023-04-20T00:00:50;99725.25;;;2.89;100.00
13080;BME280;6606;49.154;9.280;2023-04-20T00:03:32;99721.09;;;2.77;100.00
13080;BME280;6606;49.154;9.280;2023-04-20T00:06:14;99717.53;;;2.81;100.00
13080;BME280;6606;49.154;9.280;2023-04-20T00:08:57;99708.66;;;2.88;100.00
13080;BME280;6606;49.154;9.280;2023-04-20T00:11:40;99708.63;;;2.91;100.00
13080;BME280;6606;49.154;9.280;2023-04-20T00:14:22;99699.09;;;2.87;100.00
13080;BME280;6606;49.154;9.280;2023-04-20T00:17:07;99694.84;;;2.80;100.00
13080;BME280;6606;49.154;9.280;2023-04-20T00:19:49;99693.88;;;2.85;100.00
13080;BME280;6606;49.154;9.280;2023-04-20T00:22:31;99683.38;;;2.87;100.00
13080;BME280;6606;49.154;9.280;2023-04-20T00:25:13;99687.78;;;2.85;100.00
13080;BME280;6606;49.154;9.280;2023-04-20T00:27:55;99679.09;;;2.83;100.00
13080;BME280;6606;49.154;9.280;2023-04-20T00:30:37;99675.69;;;2.78;100.00
13080;BME280;6606;49.154;9.280;2023-04-20T00:33:22;99673.97;;;2.77;100.00
13080;BME280;6606;49.154;9.280;2023-04-20T00:36:04;99666.19;;;2.72;100.00
13080;BME280;6606;49.154;9.280;2023-04-20T00:38:46;99668.88;;;2.71;100.00
13080;BME280;6606;49.154;9.280;2023-04-20T00:41:29;99667.09;;;2.73;100.00
13080;BME280;6606;49.154;9.280;2023-04-20T00:44:13;99657.53;;;2.70;100.00
13080;BME280;6606;49.154;9.280;2023-04-20T00:46:55;99661.94;;;2.67;100.00
13080;BME280;6606;49.154;9.280;2023-04-20T00:49:38;99655.06;;;2.62;100.00
13080;BME280;6606;49.154;9.280;2023-04-20T00:52:20;99653.38;;;2.58;100.00
13080;BME280;6606;49.154;9.280;2023-04-20T00:55:04;99647.34;;;2.55;100.00
13080;BME280;6606;49.154;9.280;2023-04-20T00:57:47;99649.91;;;2.56;100.00
13080;BME280;6606;49.154;9.280;2023-04-20T01:00:29;99640.44;;;2.51;100.00
13080;BME280;6606;49.154;9.280;2023-04-20T01:03:11;99642.31;;;2.44;100.00
13080;BME280;6606;49.154;9.280;2023-04-20T01:05:55;99645.81;;;2.43;100.00
13080;BME280;6606;49.154;9.280;2023-04-20T01:08:45;99637.94;;;2.43;100.00
13080;BME280;6606;49.154;9.280;2023-04-20T01:11:27;99641.53;;;2.39;100.00
13080;BME280;6606;49.154;9.280;2023-04-20T01:14:09;99640.63;;;2.40;100.00
13080;BME280;6606;49.154;9.280;2023-04-20T01:16:51;99638.94;;;2.37;100.00
13080;BME280;6606;49.154;9.280;2023-04-20T01:19:33;99635.53;;;2.32;100.00
13080;BME280;6606;49.154;9.280;2023-04-20T01:22:18;99622.63;;;2.22;100.00
13080;BME280;6606;49.154;9.280;2023-04-20T01:25:00;99632.31;;;2.16;100.00
13080;BME280;6606;49.154;9.280;2023-04-20T01:27:42;99631.56;;;2.08;100.00
13080;BME280;6606;49.154;9.280;2023-04-20T01:30:24;99626.34;;;2.10;100.00
13080;BME280;6606;49.154;9.280;2023-04-20T01:33:06;99624.69;;;2.04;100.00
13080;BME280;6606;49.154;9.280;2023-04-20T01:35:51;99621.31;;;1.97;100.00
13080;BME280;6606;49.154;9.280;2023-04-20T01:38:34;99616.81;;;2.06;100.00
13080;BME280;6606;49.154;9.280;2023-04-20T01:41:16;99611.56;;;2.06;100.00
13080;BME280;6606;49.154;9.280;2023-04-20T01:43:58;99610.66;;;2.08;100.00
13080;BME280;6606;49.154;9.280;2023-04-20T01:46:40;99602.94;;;2.01;100.00
13080;BME280;6606;49.154;9.280;2023-04-20T01:49:22;99605.47;;;2.07;100.00
13080;BME280;6606;49.154;9.280;2023-04-20T01:52:05;99594.25;;;2.02;100.00
13080;BME280;6606;49.154;9.280;2023-04-20T01:54:48;99592.59;;;1.96;100.00
13080;BME280;6606;49.154;9.280;2023-04-20T01:57:30;99587.25;;;2.02;100.00
13080;BME280;6606;49.154;9.280;2023-04-20T02:00:13;99586.34;;;2.03;100.00
13080;BME280;6606;49.154;9.280;2023-04-20T02:02:55;99582.03;;;2.02;100.00
13080;BME280;6606;49.154;9.280;2023-04-20T02:05:38;99577.72;;;2.00;100.00
13080;BME280;6606;49.154;9.280;2023-04-20T02:08:23;99589.06;;;1.98;100.00
13080;BME280;6606;49.154;9.280;2023-04-20T02:11:06;99574.31;;;1.96;100.00
13080;BME280;6606;49.154;9.280;2023-04-20T02:13:49;99578.69;;;1.94;100.00
13080;BME280;6606;49.154;9.280;2023-04-20T02:16:31;99577.94;;;1.86;100.00
13080;BME280;6606;49.154;9.280;2023-04-20T02:19:14;99588.47;;;1.80;100.00
13080;BME280;6606;49.154;9.280;2023-04-20T02:21:58;99578.81;;;1.86;100.00
13080;BME280;6606;49.154;9.280;2023-04-20T02:24:41;99575.41;;;1.81;100.00
13080;BME280;6606;49.154;9.280;2023-04-20T02:27:24;99572.81;;;1.80;100.00
13080;BME280;6606;49.154;9.280;2023-04-20T02:30:07;99574.50;;;1.84;100.00
13080;BME280;6606;49.154;9.280;2023-04-20T02:32:49;99571.09;;;1.80;100.00
13080;BME280;6606;49.154;9.280;2023-04-20T02:35:31;99574.56;;;1.79;100.00
13080;BME280;6606;49.154;9.280;2023-04-20T02:38:14;99563.38;;;1.71;100.00
13080;BME280;6606;49.154;9.280;2023-04-20T02:40:56;99571.22;;;1.71;100.00
13080;BME280;6606;49.154;9.280;2023-04-20T02:43:40;99565.91;;;1.75;100.00
13080;BME280;6606;49.154;9.280;2023-04-20T02:46:23;99566.94;;;1.65;100.00
13080;BME280;6606;49.154;9.280;2023-04-20T02:49:05;99555.53;;;1.72;100.00
13080;BME280;6606;49.154;9.280;2023-04-20T02:51:51;99561.56;;;1.76;100.00
13080;BME280;6606;49.154;9.280;2023-04-20T02:54:33;99553.81;;;1.70;100.00
13080;BME280;6606;49.154;9.280;2023-04-20T02:57:17;99546.00;;;1.68;100.00
13080;BME280;6606;49.154;9.280;2023-04-20T03:00:00;99540.72;;;1.73;100.00
13080;BME280;6606;49.154;9.280;2023-04-20T03:02:54;99536.34;;;1.73;100.00
13080;BME280;6606;49.154;9.280;2023-04-20T03:05:37;99534.63;;;1.72;100.00
13080;BME280;6606;49.154;9.280;2023-04-20T03:08:19;99530.38;;;1.65;100.00
13080;BME280;6606;49.154;9.280;2023-04-20T03:11:02;99522.59;;;1.62;100.00
13080;BME280;6606;49.154;9.280;2023-04-20T03:13:44;99524.38;;;1.60;100.00
13080;BME280;6606;49.154;9.280;2023-04-20T03:16:30;99536.75;;;1.49;100.00
13080;BME280;6606;49.154;9.280;2023-04-20T03:19:32;99521.81;;;1.56;100.00
13080;BME280;6606;49.154;9.280;2023-04-20T03:22:14;99530.56;;;1.53;100.00
13080;BME280;6606;49.154;9.280;2023-04-20T03:24:59;99527.81;;;1.62;100.00
13080;BME280;6606;49.154;9.280;2023-04-20T03:28:17;99532.03;;;1.71;100.00
13080;BME280;6606;49.154;9.280;2023-04-20T03:30:59;99536.44;;;1.67;100.00
13080;BME280;6606;49.154;9.280;2023-04-20T03:33:44;99536.50;;;1.64;100.00
13080;BME280;6606;49.154;9.280;2023-04-20T03:36:35;99530.31;;;1.70;100.00
13080;BME280;6606;49.154;9.280;2023-04-20T03:39:35;99536.44;;;1.67;100.00
13080;BME280;6606;49.154;9.280;2023-04-20T03:42:20;99523.47;;;1.61;100.00
13080;BME280;6606;49.154;9.280;2023-04-20T03:45:04;99525.22;;;1.61;100.00
13080;BME280;6606;49.154;9.280;2023-04-20T03:47:47;99524.38;;;1.60;100.00
13080;BME280;6606;49.154;9.280;2023-04-20T03:50:30;99520.84;;;1.61;100.00
13080;BME280;6606;49.154;9.280;2023-04-20T03:53:12;99517.50;;;1.53;100.00
13080;BME280;6606;49.154;9.280;2023-04-20T03:55:54;99516.69;;;1.51;100.00
13080;BME280;6606;49.154;9.280;2023-04-20T03:58:36;99505.41;;;1.49;100.00
13080;BME280;6606;49.154;9.280;2023-04-20T04:01:27;99516.81;;;1.43;100.00
13080;BME280;6606;49.154;9.280;2023-04-20T04:04:11;99513.25;;;1.49;100.00
13080;BME280;6606;49.154;9.280;2023-04-20T04:06:54;99508.13;;;1.41;100.00
13080;BME280;6606;49.154;9.280;2023-04-20T04:09:37;99513.34;;;1.41;100.00
13080;BME280;6606;49.154;9.280;2023-04-20T04:12:21;99506.44;;;1.37;100.00
13080;BME280;6606;49.154;9.280;2023-04-20T04:15:04;99508.19;;;1.37;100.00
13080;BME280;6606;49.154;9.280;2023-04-20T04:17:49;99512.56;;;1.38;100.00
13080;BME280;6606;49.154;9.280;2023-04-20T04:20:31;99512.56;;;1.35;100.00
13080;BME280;6606;49.154;9.280;2023-04-20T04:23:15;99510.91;;;1.30;100.00
13080;BME280;6606;49.154;9.280;2023-04-20T04:26:15;99510.81;;;1.37;100.00
13080;BME280;6606;49.154;9.280;2023-04-20T04:28:58;99514.25;;;1.39;100.00
13080;BME280;6606;49.154;9.280;2023-04-20T04:31:40;99509.00;;;1.42;100.00
13080;BME280;6606;49.154;9.280;2023-04-20T04:34:28;99510.75;;;1.40;100.00
13080;BME280;6606;49.154;9.280;2023-04-20T04:37:10;99516.69;;;1.51;100.00
13080;BME280;6606;49.154;9.280;2023-04-20T04:40:07;99513.06;;;1.60;100.00
13080;BME280;6606;49.154;9.280;2023-04-20T04:42:52;99507.84;;;1.58;100.00
13080;BME280;6606;49.154;9.280;2023-04-20T04:45:36;99515.63;;;1.61;100.00
13080;BME280;6606;49.154;9.280;2023-04-20T04:48:19;99517.47;;;1.56;100.00
13080;BME280;6606;49.154;9.280;2023-04-20T04:51:02;99515.69;;;1.58;100.00
13080;BME280;6606;49.154;9.280;2023-04-20T04:53:44;99510.28;;;1.69;100.00
13080;BME280;6606;49.154;9.280;2023-04-20T04:56:28;99505.69;;;1.83;100.00
13080;BME280;6606;49.154;9.280;2023-04-20T04:59:10;99502.00;;;1.95;100.00
13080;BME280;6606;49.154;9.280;2023-04-20T05:01:51;99501.25;;;1.88;100.00
13080;BME280;6606;49.154;9.280;2023-04-20T05:04:33;99504.59;;;1.95;100.00
13080;BME280;6606;49.154;9.280;2023-04-20T05:07:15;99507.16;;;2.00;100.00
13080;BME280;6606;49.154;9.280;2023-04-20T05:09:57;99510.53;;;2.05;100.00
13080;BME280;6606;49.154;9.280;2023-04-20T05:12:40;99507.88;;;2.06;100.00
13080;BME280;6606;49.154;9.280;2023-04-20T05:15:21;99510.19;;;2.23;100.00
13080;BME280;6606;49.154;9.280;2023-04-20T05:18:03;99507.50;;;2.28;100.00
13080;BME280;6606;49.154;9.280;2023-04-20T05:20:45;99501.34;;;2.30;100.00
13080;BME280;6606;49.154;9.280;2023-04-20T05:23:27;99502.09;;;2.37;100.00
13080;BME280;6606;49.154;9.280;2023-04-20T05:26:09;99505.47;;;2.42;100.00
13080;BME280;6606;49.154;9.280;2023-04-20T05:28:52;99508.66;;;2.56;100.00
13080;BME280;6606;49.154;9.280;2023-04-20T05:31:34;99504.09;;;2.66;100.00
13080;BME280;6606;49.154;9.280;2023-04-20T05:34:16;99507.50;;;2.70;100.00
13080;BME280;6606;49.154;9.280;2023-04-20T05:36:58;99499.56;;;2.76;100.00
13080;BME280;6606;49.154;9.280;2023-04-20T05:39:39;99499.16;;;2.93;100.00
13080;BME280;6606;49.154;9.280;2023-04-20T05:42:21;99496.38;;;3.02;100.00
13080;BME280;6606;49.154;9.280;2023-04-20T05:45:05;99501.31;;;3.14;100.00
13080;BME280;6606;49.154;9.280;2023-04-20T05:47:54;99506.78;;;3.05;100.00
13080;BME280;6606;49.154;9.280;2023-04-20T05:50:36;99498.75;;;3.13;100.00
13080;BME280;6606;49.154;9.280;2023-04-20T05:53:17;99503.47;;;3.34;100.00
13080;BME280;6606;49.154;9.280;2023-04-20T05:55:59;99496.28;;;3.42;100.00
13080;BME280;6606;49.154;9.280;2023-04-20T05:58:41;99501.28;;;3.51;100.00
13080;BME280;6606;49.154;9.280;2023-04-20T06:01:24;99495.69;;;3.67;100.00
13080;BME280;6606;49.154;9.280;2023-04-20T06:04:06;99496.78;;;3.92;100.00
13080;BME280;6606;49.154;9.280;2023-04-20T06:06:48;99491.16;;;4.08;100.00
13080;BME280;6606;49.154;9.280;2023-04-20T06:09:30;99496.56;;;4.33;100.00
13080;BME280;6606;49.154;9.280;2023-04-20T06:12:12;99500.38;;;4.52;100.00
13080;BME280;6606;49.154;9.280;2023-04-20T06:14:53;99497.00;;;4.78;100.00
13080;BME280;6606;49.154;9.280;2023-04-20T06:17:37;99504.53;;;4.91;100.00
13080;BME280;6606;49.154;9.280;2023-04-20T06:20:20;99497.88;;;5.09;100.00
13080;BME280;6606;49.154;9.280;2023-04-20T06:23:01;99497.03;;;5.08;100.00
13080;BME280;6606;49.154;9.280;2023-04-20T06:25:43;99486.13;;;5.20;100.00
13080;BME280;6606;49.154;9.280;2023-04-20T06:28:25;99493.22;;;5.45;100.00
13080;BME280;6606;49.154;9.280;2023-04-20T06:31:07;99495.09;;;5.68;100.00
13080;BME280;6606;49.154;9.280;2023-04-20T06:33:50;99489.38;;;5.55;100.00
13080;BME280;6606;49.154;9.280;2023-04-20T06:36:32;99488.50;;;5.81;100.00
13080;BME280;6606;49.154;9.280;2023-04-20T06:39:15;99487.53;;;6.10;100.00
13080;BME280;6606;49.154;9.280;2023-04-20T06:41:57;99476.91;;;6.13;100.00
13080;BME280;6606;49.154;9.280;2023-04-20T06:44:39;99472.84;;;6.30;100.00
13080;BME280;6606;49.154;9.280;2023-04-20T06:47:20;99477.41;;;6.48;100.00
13080;BME280;6606;49.154;9.280;2023-04-20T06:50:05;99469.41;;;6.51;100.00
13080;BME280;6606;49.154;9.280;2023-04-20T06:52:48;99470.09;;;6.33;100.00
13080;BME280;6606;49.154;9.280;2023-04-20T06:55:30;99469.75;;;6.42;100.00
13080;BME280;6606;49.154;9.280;2023-04-20T06:58:12;99465.75;;;6.55;100.00
13080;BME280;6606;49.154;9.280;2023-04-20T07:00:54;99463.94;;;6.79;100.00
13080;BME280;6606;49.154;9.280;2023-04-20T07:03:35;99462.09;;;6.83;100.00
13080;BME280;6606;49.154;9.280;2023-04-20T07:06:19;99467.28;;;6.85;100.00
13080;BME280;6606;49.154;9.280;2023-04-20T07:09:00;99465.97;;;6.96;100.00
13080;BME280;6606;49.154;9.280;2023-04-20T07:11:43;99460.06;;;7.12;100.00
13080;BME280;6606;49.154;9.280;2023-04-20T07:14:25;99457.72;;;7.70;100.00
13080;BME280;6606;49.154;9.280;2023-04-20T07:17:07;99451.41;;;10.84;100.00
13080;BME280;6606;49.154;9.280;2023-04-20T07:19:49;99429.78;;;13.94;98.19
13080;BME280;6606;49.154;9.280;2023-04-20T07:22:33;99433.94;;;15.48;72.53
13080;BME280;6606;49.154;9.280;2023-04-20T07:25:15;99436.00;;;16.15;59.26
13080;BME280;6606;49.154;9.280;2023-04-20T07:27:57;99434.13;;;16.62;58.82
13080;BME280;6606;49.154;9.280;2023-04-20T07:30:39;99434.09;;;16.40;57.66
13080;BME280;6606;49.154;9.280;2023-04-20T07:33:21;99421.69;;;17.06;55.80
13080;BME280;6606;49.154;9.280;2023-04-20T07:36:03;99423.88;;;17.88;49.94
13080;BME280;6606;49.154;9.280;2023-04-20T07:38:47;99419.00;;;18.45;45.68
13080;BME280;6606;49.154;9.280;2023-04-20T07:41:28;99427.97;;;17.28;49.13
13080;BME280;6606;49.154;9.280;2023-04-20T07:44:11;99419.50;;;16.55;51.33
13080;BME280;6606;49.154;9.280;2023-04-20T07:46:53;99427.25;;;16.24;53.75
13080;BME280;6606;49.154;9.280;2023-04-20T07:49:37;99416.38;;;17.71;52.76
13080;BME280;6606;49.154;9.280;2023-04-20T07:52:20;99426.53;;;17.24;51.60
13080;BME280;6606;49.154;9.280;2023-04-20T07:55:04;99421.47;;;17.09;49.87
13080;BME280;6606;49.154;9.280;2023-04-20T07:57:45;99423.75;;;17.46;48.96
13080;BME280;6606;49.154;9.280;2023-04-20T08:00:27;99422.13;;;17.34;49.92
13080;BME280;6606;49.154;9.280;2023-04-20T08:03:09;99415.41;;;18.35;46.61
13080;BME280;6606;49.154;9.280;2023-04-20T08:05:53;99420.44;;;17.22;49.81
13080;BME280;6606;49.154;9.280;2023-04-20T08:08:34;99415.34;;;18.25;45.30
13080;BME280;6606;49.154;9.280;2023-04-20T08:11:18;99413.59;;;18.66;46.38
13080;BME280;6606;49.154;9.280;2023-04-20T08:14:00;99417.84;;;18.68;44.12
13080;BME280;6606;49.154;9.280;2023-04-20T08:16:42;99405.56;;;18.14;45.44
13080;BME280;6606;49.154;9.280;2023-04-20T08:19:24;99405.28;;;18.17;48.08
13080;BME280;6606;49.154;9.280;2023-04-20T08:22:09;99404.53;;;18.36;45.41
13080;BME280;6606;49.154;9.280;2023-04-20T08:24:51;99402.25;;;16.82;49.77
13080;BME280;6606;49.154;9.280;2023-04-20T08:27:34;99407.06;;;14.39;69.93
13080;BME280;6606;49.154;9.280;2023-04-20T08:30:16;99398.38;;;13.59;85.56
13080;BME280;6606;49.154;9.280;2023-04-20T08:32:58;99411.22;;;12.98;100.00
13080;BME280;6606;49.154;9.280;2023-04-20T08:35:40;99406.16;;;11.95;100.00
13080;BME280;6606;49.154;9.280;2023-04-20T08:38:21;99393.91;;;11.92;100.00
13080;BME280;6606;49.154;9.280;2023-04-20T08:41:04;99389.81;;;12.01;100.00
13080;BME280;6606;49.154;9.280;2023-04-20T08:43:47;99395.41;;;11.66;100.00
13080;BME280;6606;49.154;9.280;2023-04-20T08:46:30;99387.41;;;12.12;100.00
13080;BME280;6606;49.154;9.280;2023-04-20T08:49:14;99392.91;;;12.23;100.00
13080;BME280;6606;49.154;9.280;2023-04-20T08:51:57;99392.13;;;12.07;100.00
13080;BME280;6606;49.154;9.280;2023-04-20T08:54:39;99381.88;;;12.29;100.00
13080;BME280;6606;49.154;9.280;2023-04-20T08:57:20;99392.41;;;12.02;100.00
13080;BME280;6606;49.154;9.280;2023-04-20T09:00:06;99391.72;;;11.69;100.00
13080;BME280;6606;49.154;9.280;2023-04-20T09:02:50;99385.59;;;12.13;100.00
13080;BME280;6606;49.154;9.280;2023-04-20T09:05:32;99377.00;;;11.93;100.00
13080;BME280;6606;49.154;9.280;2023-04-20T09:08:14;99380.34;;;12.11;100.00
13080;BME280;6606;49.154;9.280;2023-04-20T09:10:55;99373.22;;;12.96;95.48
13080;BME280;6606;49.154;9.280;2023-04-20T09:13:37;99381.13;;;12.83;100.00
13080;BME280;6606;49.154;9.280;2023-04-20T09:16:20;99386.03;;;13.04;94.25
13080;BME280;6606;49.154;9.280;2023-04-20T09:19:02;99374.34;;;13.06;87.16
13080;BME280;6606;49.154;9.280;2023-04-20T09:21:47;99376.22;;;13.04;89.26
13080;BME280;6606;49.154;9.280;2023-04-20T09:24:31;99391.97;;;12.94;93.71
13080;BME280;6606;49.154;9.280;2023-04-20T09:27:14;99384.41;;;12.74;92.02
13080;BME280;6606;49.154;9.280;2023-04-20T09:29:57;99380.50;;;13.07;87.39
13080;BME280;6606;49.154;9.280;2023-04-20T09:32:40;99379.06;;;13.15;83.29
13080;BME280;6606;49.154;9.280;2023-04-20T09:35:22;99371.31;;;12.98;90.57
13080;BME280;6606;49.154;9.280;2023-04-20T09:38:04;99373.28;;;13.09;94.92
13080;BME280;6606;49.154;9.280;2023-04-20T09:40:46;99372.22;;;12.70;90.89
13080;BME280;6606;49.154;9.280;2023-04-20T09:43:28;99372.72;;;13.04;93.25
13080;BME280;6606;49.154;9.280;2023-04-20T09:46:11;99372.50;;;12.80;94.31
13080;BME280;6606;49.154;9.280;2023-04-20T09:48:54;99364.59;;;13.19;88.89
13080;BME280;6606;49.154;9.280;2023-04-20T09:51:38;99369.69;;;12.68;96.88
13080;BME280;6606;49.154;9.280;2023-04-20T09:54:21;99372.00;;;12.31;100.00
13080;BME280;6606;49.154;9.280;2023-04-20T09:57:04;99372.03;;;12.17;100.00
13080;BME280;6606;49.154;9.280;2023-04-20T09:59:46;99367.34;;;12.35;100.00
13080;BME280;6606;49.154;9.280;2023-04-20T10:02:28;99376.00;;;12.10;100.00
13080;BME280;6606;49.154;9.280;2023-04-20T10:05:11;99367.53;;;12.03;100.00
13080;BME280;6606;49.154;9.280;2023-04-20T10:07:58;99366.50;;;12.06;100.00
13080;BME280;6606;49.154;9.280;2023-04-20T10:10:44;99376.94;;;12.23;100.00
13080;BME280;6606;49.154;9.280;2023-04-20T10:13:31;99368.13;;;12.37;99.01
13080;BME280;6606;49.154;9.280;2023-04-20T10:16:16;99369.25;;;12.33;100.00
13080;BME280;6606;49.154;9.280;2023-04-20T10:19:00;99369.72;;;12.11;100.00
13080;BME280;6606;49.154;9.280;2023-04-20T10:21:48;99364.59;;;12.37;98.85
13080;BME280;6606;49.154;9.280;2023-04-20T10:24:30;99356.25;;;12.28;100.00
13080;BME280;6606;49.154;9.280;2023-04-20T10:27:16;99349.78;;;12.32;100.00
13080;BME280;6606;49.154;9.280;2023-04-20T10:30:07;99357.00;;;12.45;98.59
13080;BME280;6606;49.154;9.280;2023-04-20T10:33:01;99351.41;;;12.35;100.00
13080;BME280;6606;49.154;9.280;2023-04-20T10:35:46;99348.41;;;12.68;100.00
13080;BME280;6606;49.154;9.280;2023-04-20T10:38:31;99345.75;;;12.68;100.00
13080;BME280;6606;49.154;9.280;2023-04-20T10:41:13;99355.59;;;12.81;100.00
13080;BME280;6606;49.154;9.280;2023-04-20T10:44:05;99337.78;;;13.23;94.03
13080;BME280;6606;49.154;9.280;2023-04-20T10:46:50;99342.66;;;13.16;88.27
13080;BME280;6606;49.154;9.280;2023-04-20T10:49:32;99333.09;;;13.53;90.04
13080;BME280;6606;49.154;9.280;2023-04-20T10:52:14;99339.09;;;13.30;87.12
13080;BME280;6606;49.154;9.280;2023-04-20T10:54:57;99341.03;;;12.59;93.08
13080;BME280;6606;49.154;9.280;2023-04-20T10:57:43;99333.50;;;13.20;84.63
13080;BME280;6606;49.154;9.280;2023-04-20T11:00:27;99329.63;;;13.38;85.01
13080;BME280;6606;49.154;9.280;2023-04-20T11:03:10;99335.84;;;12.00;98.85
13080;BME280;6606;49.154;9.280;2023-04-20T11:05:52;99337.47;;;11.88;100.00
13080;BME280;6606;49.154;9.280;2023-04-20T11:08:38;99341.50;;;11.80;95.58
13080;BME280;6606;49.154;9.280;2023-04-20T11:11:22;99328.53;;;12.04;91.76
13080;BME280;6606;49.154;9.280;2023-04-20T11:14:08;99327.81;;;12.02;93.33
13080;BME280;6606;49.154;9.280;2023-04-20T11:16:51;99317.91;;;12.04;94.48
13080;BME280;6606;49.154;9.280;2023-04-20T11:19:34;99327.88;;;11.41;98.94
13080;BME280;6606;49.154;9.280;2023-04-20T11:22:20;99326.41;;;11.06;99.17
13080;BME280;6606;49.154;9.280;2023-04-20T11:25:03;99326.38;;;11.21;100.00
13080;BME280;6606;49.154;9.280;2023-04-20T11:27:47;99324.94;;;11.16;100.00
13080;BME280;6606;49.154;9.280;2023-04-20T11:30:37;99321.75;;;10.95;100.00
13080;BME280;6606;49.154;9.280;2023-04-20T11:33:24;99315.44;;;10.66;100.00
13080;BME280;6606;49.154;9.280;2023-04-20T11:36:17;99327.44;;;10.24;100.00
13080;BME280;6606;49.154;9.280;2023-04-20T11:39:06;99308.75;;;10.27;100.00
13080;BME280;6606;49.154;9.280;2023-04-20T11:41:48;99292.91;;;10.59;100.00
13080;BME280;6606;49.154;9.280;2023-04-20T11:44:31;99303.19;;;10.95;100.00
13080;BME280;6606;49.154;9.280;2023-04-20T11:47:15;99292.19;;;11.17;100.00
13080;BME280;6606;49.154;9.280;2023-04-20T11:49:57;99263.03;;;11.45;100.00
13080;BME280;6606;49.154;9.280;2023-04-20T11:52:39;99275.00;;;11.53;100.00
13080;BME280;6606;49.154;9.280;2023-04-20T11:55:20;99273.91;;;12.56;100.00
13080;BME280;6606;49.154;9.280;2023-04-20T11:58:02;99265.63;;;12.60;98.55
13080;BME280;6606;49.154;9.280;2023-04-20T12:00:45;99271.28;;;12.95;93.78
13080;BME280;6606;49.154;9.280;2023-04-20T12:03:27;99274.69;;;12.43;95.76
13080;BME280;6606;49.154;9.280;2023-04-20T12:06:09;99279.06;;;11.88;99.99
13080;BME280;6606;49.154;9.280;2023-04-20T12:08:51;99286.41;;;11.83;100.00
13080;BME280;6606;49.154;9.280;2023-04-20T12:11:32;99278.28;;;11.86;100.00
13080;BME280;6606;49.154;9.280;2023-04-20T12:14:14;99289.03;;;11.69;100.00
13080;BME280;6606;49.154;9.280;2023-04-20T12:16:57;99300.09;;;12.06;96.96
13080;BME280;6606;49.154;9.280;2023-04-20T12:19:39;99287.75;;;11.91;96.98
13080;BME280;6606;49.154;9.280;2023-04-20T12:22:21;99282.50;;;12.32;97.93
13080;BME280;6606;49.154;9.280;2023-04-20T12:25:04;99280.28;;;11.97;91.21
13080;BME280;6606;49.154;9.280;2023-04-20T12:27:46;99278.81;;;11.63;93.46
13080;BME280;6606;49.154;9.280;2023-04-20T12:30:27;99273.59;;;11.61;97.05
13080;BME280;6606;49.154;9.280;2023-04-20T12:33:11;99269.34;;;11.73;97.13
13080;BME280;6606;49.154;9.280;2023-04-20T12:35:52;99260.03;;;12.09;92.17
13080;BME280;6606;49.154;9.280;2023-04-20T12:38:34;99255.41;;;12.13;93.40
13080;BME280;6606;49.154;9.280;2023-04-20T12:41:16;99260.53;;;12.16;88.38
13080;BME280;6606;49.154;9.280;2023-04-20T12:43:57;99251.53;;;11.75;87.27
13080;BME280;6606;49.154;9.280;2023-04-20T12:46:39;99259.47;;;11.47;95.10
13080;BME280;6606;49.154;9.280;2023-04-20T12:49:23;99245.50;;;11.43;98.32
13080;BME280;6606;49.154;9.280;2023-04-20T12:52:04;99257.28;;;11.53;100.00
13080;BME280;6606;49.154;9.280;2023-04-20T12:54:46;99248.09;;;11.59;93.48
13080;BME280;6606;49.154;9.280;2023-04-20T12:57:29;99249.50;;;11.50;91.77
13080;BME280;6606;49.154;9.280;2023-04-20T13:00:11;99248.28;;;11.56;88.52
13080;BME280;6606;49.154;9.280;2023-04-20T13:02:53;99258.97;;;11.40;95.79
13080;BME280;6606;49.154;9.280;2023-04-20T13:05:36;99257.47;;;11.36;95.79
13080;BME280;6606;49.154;9.280;2023-04-20T13:08:18;99258.31;;;11.36;94.15
13080;BME280;6606;49.154;9.280;2023-04-20T13:11:00;99264.91;;;11.29;92.01
13080;BME280;6606;49.154;9.280;2023-04-20T13:13:43;99262.63;;;11.09;96.83
13080;BME280;6606;49.154;9.280;2023-04-20T13:16:25;99252.81;;;11.25;96.07
13080;BME280;6606;49.154;9.280;2023-04-20T13:19:07;99252.41;;;11.31;93.73
13080;BME280;6606;49.154;9.280;2023-04-20T13:21:50;99247.31;;;11.28;94.45
13080;BME280;6606;49.154;9.280;2023-04-20T13:24:32;99243.47;;;11.04;93.98
13080;BME280;6606;49.154;9.280;2023-04-20T13:27:28;99228.28;;;11.36;88.95
13080;BME280;6606;49.154;9.280;2023-04-20T13:30:29;99243.06;;;11.54;91.27
13080;BME280;6606;49.154;9.280;2023-04-20T13:33:11;99249.97;;;11.42;91.07
13080;BME280;6606;49.154;9.280;2023-04-20T13:35:53;99253.59;;;11.70;89.77
13080;BME280;6606;49.154;9.280;2023-04-20T13:38:36;99249.53;;;11.93;84.66
13080;BME280;6606;49.154;9.280;2023-04-20T13:41:17;99235.03;;;11.70;91.92
13080;BME280;6606;49.154;9.280;2023-04-20T13:43:59;99221.25;;;12.06;85.94
13080;BME280;6606;49.154;9.280;2023-04-20T13:46:41;99226.63;;;12.34;80.35
13080;BME280;6606;49.154;9.280;2023-04-20T13:49:23;99224.69;;;12.36;75.01
13080;BME280;6606;49.154;9.280;2023-04-20T13:52:05;99227.34;;;12.36;74.78
13080;BME280;6606;49.154;9.280;2023-04-20T13:54:49;99223.19;;;12.31;72.77
13080;BME280;6606;49.154;9.280;2023-04-20T13:57:32;99214.53;;;12.42;74.80
13080;BME280;6606;49.154;9.280;2023-04-20T14:00:14;99207.09;;;12.47;75.98
13080;BME280;6606;49.154;9.280;2023-04-20T14:03:07;99212.16;;;12.10;75.91
13080;BME280;6606;49.154;9.280;2023-04-20T14:05:54;99216.13;;;12.18;77.83
13080;BME280;6606;49.154;9.280;2023-04-20T14:08:42;99221.16;;;12.08;82.54
13080;BME280;6606;49.154;9.280;2023-04-20T14:11:26;99219.28;;;12.10;86.20
13080;BME280;6606;49.154;9.280;2023-04-20T14:14:08;99224.31;;;12.42;79.74
13080;BME280;6606;49.154;9.280;2023-04-20T14:16:50;99227.72;;;12.44;85.36
13080;BME280;6606;49.154;9.280;2023-04-20T14:19:31;99230.22;;;12.32;80.70
13080;BME280;6606;49.154;9.280;2023-04-20T14:22:13;99230.69;;;12.39;80.89
13080;BME280;6606;49.154;9.280;2023-04-20T14:24:55;99224.69;;;12.36;82.29
13080;BME280;6606;49.154;9.280;2023-04-20T14:27:38;99226.88;;;11.87;84.65
13080;BME280;6606;49.154;9.280;2023-04-20T14:30:20;99222.69;;;11.83;87.56
13080;BME280;6606;49.154;9.280;2023-04-20T14:33:03;99229.03;;;11.52;92.96
13080;BME280;6606;49.154;9.280;2023-04-20T14:35:48;99215.84;;;11.51;97.43